Time;durP1;ratioP1;P1;durP2;ratioP2;P2;SDS_P1;SDS_P2;PMS_P1;PMS_P2;Temp;Humidity;BMP_temperature;BMP_pressure;BME280_temperature;BME280_humidity;BME280_pressure;Samples;Min_cycle;Max_cycle;Signal;HPM_P1;HPM_P2
2023/03/03 00:01:31;;;;;;;37.00;19.40;;;;;;;0.19;87.05;101157.91;105601;1254;82401;-58
2023/03/03 00:04:00;;;;;;;38.00;19.50;;;;;;;0.18;87.22;101161.52;105515;1254;73981;-58
2023/03/03 00:06:29;;;;;;;36.90;19.40;;;;;;;0.19;87.27;101158.60;105450;1254;69007;-58
2023/03/03 00:08:57;;;;;;;37.10;18.90;;;;;;;0.19;87.43;101152.58;105509;1256;69188;-58
2023/03/03 00:11:25;;;;;;;38.30;19.00;;;;;;;0.23;87.64;101147.83;105523;1254;74533;-58
2023/03/03 00:13:55;;;;;;;38.40;19.50;;;;;;;0.24;87.49;101148.02;105478;1254;82426;-58
2023/03/03 00:16:25;;;;;;;38.70;18.40;;;;;;;0.25;87.55;101147.19;105502;1256;72202;-58
2023/03/03 00:18:54;;;;;;;35.80;18.70;;;;;;;0.24;87.48;101142.52;105552;1256;69204;-58
2023/03/03 00:21:28;;;;;;;40.30;20.50;;;;;;;0.21;87.25;101141.62;105527;1253;69023;-58
2023/03/03 00:24:17;;;;;;;41.30;20.40;;;;;;;0.16;87.26;101143.09;105553;1254;73492;-58
2023/03/03 00:26:57;;;;;;;40.70;20.40;;;;;;;0.14;87.64;101145.63;105622;1254;82903;-59
2023/03/03 00:29:55;;;;;;;44.70;21.60;;;;;;;0.14;87.83;101139.77;105482;1256;73939;-59
2023/03/03 00:32:28;;;;;;;39.40;19.00;;;;;;;0.12;87.78;101143.36;105368;1254;69761;-59
2023/03/03 00:35:16;;;;;;;36.50;19.70;;;;;;;0.13;87.75;101140.79;105462;1256;69086;-58
2023/03/03 00:37:44;;;;;;;34.40;17.70;;;;;;;0.13;87.88;101135.64;105432;1254;74929;-59
2023/03/03 00:40:25;;;;;;;31.40;17.20;;;;;;;0.12;87.65;101137.34;105527;1256;83047;-59
2023/03/03 00:42:55;;;;;;;35.10;19.70;;;;;;;0.09;87.75;101131.62;105453;1254;73944;-59
2023/03/03 00:45:30;;;;;;;40.60;18.60;;;;;;;0.12;88.00;101124.96;105357;1254;69657;-58
2023/03/03 00:47:58;;;;;;;38.90;18.80;;;;;;;0.11;87.71;101122.88;105515;1254;69167;-59
2023/03/03 00:50:30;;;;;;;33.50;18.70;;;;;;;0.07;87.73;101125.56;105370;1254;73825;-59
2023/03/03 00:52:59;;;;;;;35.30;18.00;;;;;;;0.06;87.71;101123.15;105479;1254;82488;-58
2023/03/03 00:55:29;;;;;;;39.30;19.50;;;;;;;0.07;87.87;101120.40;105518;1256;74146;-59
2023/03/03 00:57:57;;;;;;;36.20;17.90;;;;;;;0.08;88.00;101119.55;105489;1254;69192;-58
2023/03/03 01:00:27;;;;;;;35.00;18.40;;;;;;;0.06;87.91;101122.80;105399;1255;69119;-59
2023/03/03 01:02:56;;;;;;;37.40;18.10;;;;;;;0.04;88.04;101115.20;105444;1254;73657;-58
2023/03/03 01:05:24;;;;;;;39.90;18.50;;;;;;;0.05;88.18;101105.95;105454;1254;83300;-58
2023/03/03 01:07:52;;;;;;;39.10;19.40;;;;;;;0.08;88.35;101098.42;105310;1254;73916;-58
2023/03/03 01:10:20;;;;;;;33.20;18.10;;;;;;;0.08;88.03;101094.65;105477;1256;69122;-58
2023/03/03 01:12:49;;;;;;;34.70;18.00;;;;;;;0.10;88.19;101097.42;105202;1253;69055;-59
2023/03/03 01:15:17;;;;;;;34.80;17.80;;;;;;;0.06;88.01;101096.17;105539;1257;75121;-58
2023/03/03 01:17:46;;;;;;;41.10;19.00;;;;;;;0.02;87.94;101087.52;105510;1253;83595;-59
2023/03/03 01:20:15;;;;;;;41.50;20.10;;;;;;;0.02;88.17;101084.41;105476;1254;73962;-58
2023/03/03 01:22:43;;;;;;;38.60;18.30;;;;;;;0.03;88.16;101079.80;105533;1257;69181;-58
2023/03/03 01:25:11;;;;;;;42.40;19.30;;;;;;;0.05;88.17;101075.20;105451;1254;69166;-59
2023/03/03 01:27:39;;;;;;;38.30;18.50;;;;;;;0.07;88.18;101073.67;105546;1257;73265;-58
2023/03/03 01:30:08;;;;;;;40.50;18.20;;;;;;;0.07;88.05;101071.09;105528;1253;83277;-59
2023/03/03 01:32:37;;;;;;;37.00;18.50;;;;;;;0.06;88.06;101069.72;105577;1254;74380;-59
2023/03/03 01:35:06;;;;;;;38.20;18.60;;;;;;;0.06;88.14;101076.59;105429;1254;69163;-59
2023/03/03 01:37:37;;;;;;;35.20;17.00;;;;;;;0.07;88.02;101073.33;105460;1256;69137;-59
2023/03/03 01:40:10;;;;;;;34.40;16.00;;;;;;;0.04;87.64;101077.73;105452;1256;75245;-59
2023/03/03 01:42:38;;;;;;;35.00;17.90;;;;;;;-0.01;87.71;101073.73;105426;1254;83532;-59
2023/03/03 01:45:18;;;;;;;34.50;17.40;;;;;;;-0.03;87.88;101068.18;105226;1259;73855;-59
2023/03/03 01:47:53;;;;;;;34.40;16.30;;;;;;;-0.04;87.97;101076.06;105523;1253;69192;-59
2023/03/03 01:50:30;;;;;;;35.10;16.90;;;;;;;-0.06;88.07;101071.58;105573;1254;69190;-59
2023/03/03 01:53:01;;;;;;;34.10;16.10;;;;;;;-0.07;88.31;101069.83;105518;1256;74498;-59
2023/03/03 01:55:33;;;;;;;34.50;17.00;;;;;;;-0.09;88.25;101083.20;105587;1254;83289;-59
2023/03/03 01:58:15;;;;;;;41.30;19.10;;;;;;;-0.12;88.41;101078.50;105418;1254;74011;-59
2023/03/03 02:00:45;;;;;;;40.70;20.00;;;;;;;-0.14;88.69;101071.45;105464;1256;69105;-59
2023/03/03 02:03:13;;;;;;;;;;;;;;;-0.10;88.75;101074.92;105742;1254;69262;-59
2023/03/03 02:05:42;;;;;;;43.70;20.30;;;;;;;-0.10;89.02;101084.91;105484;1254;75369;-59
2023/03/03 02:08:15;;;;;;;42.20;19.40;;;;;;;-0.11;88.93;101086.09;105525;1257;83439;-59
2023/03/03 02:10:45;;;;;;;37.50;18.40;;;;;;;-0.11;88.99;101090.54;105360;1257;73179;-59
2023/03/03 02:13:13;;;;;;;30.90;14.90;;;;;;;-0.13;88.80;101087.42;105356;1252;69110;-59
2023/03/03 02:15:41;;;;;;;29.90;14.90;;;;;;;-0.15;88.56;101092.73;105687;1256;69156;-59
2023/03/03 02:18:12;;;;;;;31.80;15.70;;;;;;;-0.19;88.49;101094.17;105459;1256;74423;-59
2023/03/03 02:20:55;;;;;;;;;;;;;;;-0.21;88.31;101092.95;105439;1256;83573;-59
2023/03/03 02:23:36;;;;;;;30.30;14.80;;;;;;;-0.25;88.57;101094.77;105357;1259;72803;-59
2023/03/03 02:26:17;;;;;;;30.50;15.20;;;;;;;-0.29;88.31;101098.98;105456;1254;69215;-59
2023/03/03 02:28:46;;;;;;;29.80;15.30;;;;;;;-0.33;88.43;101092.04;105557;1257;69859;-59
2023/03/03 02:31:16;;;;;;;28.90;14.90;;;;;;;-0.34;88.43;101092.89;105332;1254;75024;-59
2023/03/03 02:33:47;;;;;;;32.80;16.60;;;;;;;-0.33;88.67;101095.30;105670;1254;83635;-60
2023/03/03 02:36:16;;;;;;;;;;;;;;;-0.35;88.63;101091.48;105464;1254;72697;-60
2023/03/03 02:39:02;;;;;;;32.20;16.80;;;;;;;-0.34;88.90;101089.96;105530;1253;69631;-60
2023/03/03 02:41:44;;;;;;;32.10;15.60;;;;;;;-0.35;88.73;101086.50;105552;1254;69071;-60
2023/03/03 02:44:14;;;;;;;35.30;16.40;;;;;;;-0.40;88.88;101086.59;105662;1253;74566;-60
2023/03/03 02:46:47;;;;;;;29.70;14.90;;;;;;;-0.38;89.24;101084.39;105466;1260;83399;-60
2023/03/03 02:49:19;;;;;;;28.80;14.50;;;;;;;-0.37;88.94;101079.61;105554;1259;72830;-60
2023/03/03 02:51:48;;;;;;;28.30;14.60;;;;;;;-0.42;88.51;101080.36;105448;1252;69161;-60
2023/03/03 02:54:19;;;;;;;28.10;13.90;;;;;;;-0.51;88.04;101076.78;105449;1252;69176;-60
2023/03/03 02:56:48;;;;;;;28.40;14.30;;;;;;;-0.61;88.11;101076.23;105544;1256;74578;-60
2023/03/03 02:59:17;;;;;;;32.80;15.80;;;;;;;-0.65;88.34;101078.89;105453;1254;83937;-60
2023/03/03 03:01:48;;;;;;;36.00;15.20;;;;;;;-0.70;88.55;101073.84;105448;1254;72122;-60
2023/03/03 03:04:20;;;;;;;35.00;15.00;;;;;;;-0.70;88.87;101076.23;105556;1253;69190;-60
2023/03/03 03:06:50;;;;;;;33.40;16.90;;;;;;;-0.69;89.01;101070.59;105445;1254;69164;-59
2023/03/03 03:09:20;;;;;;;33.10;15.90;;;;;;;-0.69;88.93;101063.22;105425;1254;73832;-59
2023/03/03 03:11:50;;;;;;;35.60;16.90;;;;;;;-0.68;88.91;101066.83;105720;1254;82447;-59
2023/03/03 03:14:20;;;;;;;30.60;15.60;;;;;;;-0.69;89.08;101073.69;105581;1254;73719;-59
2023/03/03 03:16:49;;;;;;;32.70;17.00;;;;;;;-0.72;88.92;101077.05;105483;1254;69207;-59
2023/03/03 03:19:17;;;;;;;32.40;15.50;;;;;;;-0.75;89.05;101074.43;105436;1254;69202;-59
2023/03/03 03:21:45;;;;;;;33.40;15.70;;;;;;;-0.75;88.96;101076.13;105736;1254;74521;-59
2023/03/03 03:24:13;;;;;;;38.00;17.10;;;;;;;-0.76;89.12;101077.82;105688;1256;83046;-59
2023/03/03 03:26:46;;;;;;;35.50;17.00;;;;;;;-0.76;89.19;101077.48;105516;1254;73607;-60
2023/03/03 03:29:14;;;;;;;34.30;15.70;;;;;;;-0.73;89.49;101076.17;105543;1253;69067;-60
2023/03/03 03:31:44;;;;;;;35.60;17.00;;;;;;;-0.70;89.46;101079.67;105481;1254;69066;-59
2023/03/03 03:34:13;;;;;;;28.70;14.40;;;;;;;-0.71;89.25;101083.25;105458;1256;73996;-59
2023/03/03 03:36:41;;;;;;;27.50;14.60;;;;;;;-0.74;88.94;101090.23;105388;1259;83522;-59
2023/03/03 03:39:10;;;;;;;30.90;14.20;;;;;;;-0.78;88.97;101095.98;105622;1255;72008;-59
2023/03/03 03:41:41;;;;;;;;;;;;;;;-0.79;89.27;101104.02;105378;1253;69266;-59
2023/03/03 03:44:10;;;;;;;29.20;13.70;;;;;;;-0.78;89.60;101107.98;105479;1256;69176;-59
2023/03/03 03:46:38;;;;;;;28.80;14.50;;;;;;;-0.77;89.69;101115.56;105516;1254;74849;-59
2023/03/03 03:49:06;;;;;;;31.00;14.90;;;;;;;-0.75;89.94;101118.36;105581;1254;82611;-59
2023/03/03 03:51:40;;;;;;;32.40;14.60;;;;;;;-0.72;89.96;101123.39;105531;1254;74047;-59
2023/03/03 03:54:10;;;;;;;27.60;13.60;;;;;;;-0.73;89.71;101124.39;105518;1259;69118;-59
2023/03/03 03:56:39;;;;;;;23.30;12.30;;;;;;;-0.74;89.61;101120.26;105521;1256;69196;-60
2023/03/03 03:59:08;;;;;;;23.50;11.70;;;;;;;-0.80;89.13;101128.54;105600;1254;73753;-59
2023/03/03 04:01:36;;;;;;;25.40;13.30;;;;;;;-0.84;89.15;101134.10;105492;1254;83431;-60
2023/03/03 04:04:05;;;;;;;28.10;14.20;;;;;;;-0.88;89.31;101137.81;105475;1256;73912;-59
2023/03/03 04:06:34;;;;;;;27.60;13.40;;;;;;;-0.91;89.14;101126.24;105545;1256;69179;-59
2023/03/03 04:09:04;;;;;;;24.30;13.20;;;;;;;-0.94;89.21;101127.21;105519;1253;69068;-59
2023/03/03 04:11:32;;;;;;;25.80;13.10;;;;;;;-0.97;89.19;101125.27;105508;1257;74423;-59
2023/03/03 04:14:02;;;;;;;24.70;12.60;;;;;;;-0.97;89.62;101129.73;105419;1254;83767;-59
2023/03/03 04:16:32;;;;;;;22.30;11.80;;;;;;;-0.96;89.64;101123.58;105352;1257;72815;-59
2023/03/03 04:19:00;;;;;;;20.90;10.70;;;;;;;-0.96;89.64;101119.11;105759;1253;69210;-59
2023/03/03 04:21:28;;;;;;;22.20;12.20;;;;;;;-0.97;89.43;101110.17;105488;1254;69036;-60
2023/03/03 04:23:58;;;;;;;22.60;11.70;;;;;;;-1.01;89.16;101114.72;105488;1256;73889;-60
2023/03/03 04:26:27;;;;;;;21.80;11.50;;;;;;;-1.04;89.44;101111.71;105446;1254;81726;-59
2023/03/03 04:28:57;;;;;;;26.90;12.60;;;;;;;-1.03;89.77;101115.35;105385;1257;72826;-59
2023/03/03 04:31:26;;;;;;;24.00;11.70;;;;;;;-1.03;89.77;101112.96;105569;1254;69066;-59
2023/03/03 04:33:55;;;;;;;27.50;12.70;;;;;;;-1.03;89.73;101111.77;105566;1256;69219;-60
2023/03/03 04:36:24;;;;;;;21.50;11.80;;;;;;;-1.05;89.56;101105.70;105532;1253;75214;-60
2023/03/03 04:38:53;;;;;;;24.00;12.40;;;;;;;-1.08;89.70;101108.39;105574;1256;83446;-59
2023/03/03 04:41:22;;;;;;;22.90;12.00;;;;;;;-1.08;89.55;101103.58;105520;1254;73249;-59
2023/03/03 04:43:50;;;;;;;26.90;12.10;;;;;;;-1.12;89.33;101094.58;105505;1252;69187;-59
2023/03/03 04:46:18;;;;;;;24.70;11.60;;;;;;;-1.15;89.36;101095.04;105536;1254;69106;-59
2023/03/03 04:48:47;;;;;;;25.00;12.10;;;;;;;-1.15;89.55;101098.97;105544;1256;73540;-59
2023/03/03 04:51:17;;;;;;;24.70;12.60;;;;;;;-1.16;89.51;101103.77;105602;1254;82540;-59
2023/03/03 04:53:46;;;;;;;27.60;13.50;;;;;;;-1.18;89.68;101098.73;105615;1254;72639;-59
2023/03/03 04:56:14;;;;;;;25.20;12.80;;;;;;;-1.19;89.65;101097.34;105669;1254;69126;-60
2023/03/03 04:58:42;;;;;;;25.00;12.60;;;;;;;-1.18;89.90;101098.91;105461;1256;69234;-60
2023/03/03 05:01:13;;;;;;;26.40;12.40;;;;;;;-1.17;89.96;101097.72;105440;1256;75127;-60
2023/03/03 05:03:41;;;;;;;29.50;13.60;;;;;;;-1.16;90.09;101092.08;105598;1254;83491;-60
2023/03/03 05:06:10;;;;;;;31.90;14.20;;;;;;;-1.13;90.10;101100.23;105445;1254;73398;-60
2023/03/03 05:08:38;;;;;;;25.40;12.50;;;;;;;-1.10;90.18;101100.61;105519;1254;69189;-60
2023/03/03 05:11:07;;;;;;;33.40;14.60;;;;;;;-1.13;89.79;101100.23;105463;1254;69189;-60
2023/03/03 05:13:35;;;;;;;29.80;12.90;;;;;;;-1.12;90.17;101100.41;105450;1254;74025;-60
2023/03/03 05:16:04;;;;;;;29.30;13.40;;;;;;;-1.11;90.10;101095.80;105440;1256;83770;-60
2023/03/03 05:18:32;;;;;;;60.20;29.50;;;;;;;-1.13;89.85;101094.23;105531;1254;73816;-60
2023/03/03 05:21:00;;;;;;;41.30;19.90;;;;;;;-1.17;89.67;101095.34;105477;1254;69104;-60
2023/03/03 05:23:30;;;;;;;81.80;37.60;;;;;;;-1.21;89.44;101091.98;105477;1256;69167;-60
2023/03/03 05:25:58;;;;;;;32.80;14.80;;;;;;;-1.23;89.60;101085.59;105628;1254;74890;-60
2023/03/03 05:28:26;;;;;;;28.30;12.60;;;;;;;-1.26;89.54;101083.13;105479;1256;83104;-60
2023/03/03 05:30:54;;;;;;;29.20;14.00;;;;;;;-1.26;89.58;101084.67;105463;1254;74307;-60
2023/03/03 05:33:23;;;;;;;36.80;16.40;;;;;;;-1.26;89.58;101091.18;105523;1254;69160;-60
2023/03/03 05:35:55;;;;;;;30.90;14.70;;;;;;;-1.24;89.72;101084.70;105470;1254;69077;-60
2023/03/03 05:38:24;;;;;;;31.30;15.60;;;;;;;-1.25;89.73;101091.90;105503;1254;75455;-60
2023/03/03 05:40:53;;;;;;;35.40;15.70;;;;;;;-1.25;89.67;101100.98;105520;1256;83024;-60
2023/03/03 05:43:21;;;;;;;36.30;15.40;;;;;;;-1.27;89.23;101096.14;105518;1256;72578;-60
2023/03/03 05:45:56;;;;;;;32.90;14.70;;;;;;;-1.34;89.01;101090.65;105508;1254;69071;-60
2023/03/03 05:48:24;;;;;;;39.90;16.70;;;;;;;-1.41;89.06;101093.92;105490;1254;69099;-60
2023/03/03 05:50:53;;;;;;;40.20;19.20;;;;;;;-1.42;89.56;101102.65;105459;1253;73968;-59
2023/03/03 05:53:21;;;;;;;38.90;17.60;;;;;;;-1.42;89.45;101108.84;105524;1253;83123;-59
2023/03/03 05:55:49;;;;;;;38.30;16.70;;;;;;;-1.43;89.33;101110.00;105507;1256;72845;-57
2023/03/03 05:58:17;;;;;;;36.80;16.80;;;;;;;-1.46;89.39;101108.92;105368;1257;69147;-59
2023/03/03 06:00:45;;;;;;;38.00;16.70;;;;;;;-1.46;89.61;101116.26;105543;1254;69211;-59
2023/03/03 06:03:14;;;;;;;46.00;19.60;;;;;;;-1.48;89.97;101131.67;105680;1253;73851;-59
2023/03/03 06:05:42;;;;;;;43.20;16.70;;;;;;;-1.42;90.07;101131.80;105543;1253;83383;-60
2023/03/03 06:08:10;;;;;;;38.90;16.50;;;;;;;-1.38;89.93;101127.42;105663;1253;73721;-59
2023/03/03 06:10:38;;;;;;;51.20;21.50;;;;;;;-1.35;90.21;101132.31;105579;1256;69112;-59
2023/03/03 06:13:07;;;;;;;78.00;31.20;;;;;;;-1.31;90.08;101130.85;105557;1254;69186;-59
2023/03/03 06:15:35;;;;;;;37.00;16.90;;;;;;;-1.29;90.16;101137.42;105542;1254;74662;-59
2023/03/03 06:18:04;;;;;;;40.90;16.20;;;;;;;-1.28;90.09;101132.13;105813;1257;83473;-58
2023/03/03 06:20:32;;;;;;;38.00;16.90;;;;;;;-1.24;90.31;101130.67;105548;1254;72729;-59
2023/03/03 06:23:01;;;;;;;47.20;20.00;;;;;;;-1.19;90.20;101128.89;105953;1256;70546;-60
2023/03/03 06:25:29;;;;;;;49.10;19.80;;;;;;;-1.17;90.05;101128.25;105595;1254;69269;-59
2023/03/03 06:27:57;;;;;;;39.90;18.40;;;;;;;-1.19;89.91;101128.56;105760;1254;74547;-58
2023/03/03 06:30:27;;;;;;;50.00;20.20;;;;;;;-1.21;89.84;101138.62;105649;1256;83129;-58
2023/03/03 06:32:55;;;;;;;46.40;20.00;;;;;;;-1.23;89.93;101138.58;105593;1254;72586;-59
2023/03/03 06:35:24;;;;;;;48.20;19.40;;;;;;;-1.23;89.88;101142.69;105842;1256;69123;-59
2023/03/03 06:37:52;;;;;;;48.90;20.60;;;;;;;-1.24;89.87;101147.98;105601;1254;69073;-57
2023/03/03 06:40:21;;;;;;;39.10;17.50;;;;;;;-1.25;89.84;101149.15;105548;1254;73940;-56
2023/03/03 06:42:49;;;;;;;46.70;21.60;;;;;;;-1.26;89.84;101151.20;105587;1254;83333;-55
2023/03/03 06:45:17;;;;;;;41.10;18.50;;;;;;;-1.23;90.07;101154.02;105773;1253;73427;-57
2023/03/03 06:47:46;;;;;;;38.50;18.50;;;;;;;-1.18;90.04;101153.10;105369;1252;69202;-59
2023/03/03 06:50:18;;;;;;;47.90;20.70;;;;;;;-1.14;90.20;101157.66;105637;1253;69110;-56
2023/03/03 06:52:46;;;;;;;39.10;19.00;;;;;;;-1.12;89.98;101167.81;105735;1256;75046;-56
2023/03/03 06:55:22;;;;;;;40.60;18.70;;;;;;;-1.08;90.08;101167.90;105833;1256;83202;-51
2023/03/03 06:57:50;;;;;;;41.50;19.00;;;;;;;-1.06;90.01;101162.98;105610;1254;72644;-57
2023/03/03 07:00:23;;;;;;;37.60;17.10;;;;;;;-1.03;90.29;101163.56;105522;1253;69205;-58
2023/03/03 07:03:13;;;;;;;35.80;17.80;;;;;;;-0.97;90.05;101170.90;105579;1256;69205;-58
2023/03/03 07:05:42;;;;;;;36.90;18.40;;;;;;;-0.93;90.17;101170.98;105874;1254;73686;-57
2023/03/03 07:08:16;;;;;;;42.90;19.30;;;;;;;-0.91;89.97;101169.83;105970;1255;83369;-57
2023/03/03 07:10:45;;;;;;;40.70;19.90;;;;;;;-0.91;89.68;101160.91;105969;1256;74045;-55
2023/03/03 07:13:23;;;;;;;51.60;25.80;;;;;;;-0.91;89.99;101159.20;105935;1253;69206;-55
2023/03/03 07:15:52;;;;;;;43.40;21.20;;;;;;;-0.85;90.26;101158.96;105627;1254;69282;-51
2023/03/03 07:18:32;;;;;;;45.00;22.00;;;;;;;-0.81;90.17;101160.27;105823;1254;74924;-54
2023/03/03 07:21:16;;;;;;;43.90;21.50;;;;;;;-0.79;90.18;101162.70;105521;1254;82838;-54
2023/03/03 07:23:47;;;;;;;38.90;20.80;;;;;;;-0.75;89.93;101174.29;105828;1254;73434;-53
2023/03/03 07:26:21;;;;;;;40.70;19.60;;;;;;;-0.75;89.99;101186.47;105671;1253;69163;-54
2023/03/03 07:28:53;;;;;;;43.10;19.60;;;;;;;-0.74;89.86;101184.10;105634;1256;69145;-53
2023/03/03 07:31:26;;;;;;;44.00;20.60;;;;;;;-0.75;89.73;101178.08;105459;1256;73195;-57
2023/03/03 07:33:54;;;;;;;42.20;21.80;;;;;;;-0.79;89.31;101175.24;105471;1256;83533;-56
2023/03/03 07:36:29;;;;;;;43.60;21.90;;;;;;;-0.81;89.47;101177.25;105478;1256;73598;-57
2023/03/03 07:39:04;;;;;;;42.40;21.70;;;;;;;-0.81;89.43;101175.36;105583;1253;69085;-55
2023/03/03 07:41:33;;;;;;;45.50;24.00;;;;;;;-0.83;89.28;101180.14;105374;1256;69051;-56
2023/03/03 07:44:05;;;;;;;48.50;24.30;;;;;;;-0.82;89.44;101181.69;105523;1256;73245;-56
2023/03/03 07:46:42;;;;;;;49.00;23.90;;;;;;;-0.82;89.55;101178.94;105480;1254;83486;-57
2023/03/03 07:49:20;;;;;;;43.10;20.90;;;;;;;-0.77;89.60;101185.40;105540;1254;73831;-57
2023/03/03 07:51:56;;;;;;;40.90;20.60;;;;;;;-0.76;89.56;101179.94;105465;1254;69199;-57
2023/03/03 07:54:39;;;;;;;36.70;18.80;;;;;;;-0.74;89.62;101179.64;105468;1256;69113;-57
2023/03/03 07:57:10;;;;;;;40.20;19.40;;;;;;;-0.69;89.82;101175.80;105471;1254;73779;-55
2023/03/03 07:59:47;;;;;;;38.10;20.00;;;;;;;-0.60;89.89;101177.35;105449;1254;82402;-57
2023/03/03 08:02:27;;;;;;;37.30;19.00;;;;;;;-0.57;89.64;101174.31;105458;1254;73856;-56
2023/03/03 08:04:56;;;;;;;34.00;17.50;;;;;;;-0.59;89.57;101181.83;105469;1253;69165;-56
2023/03/03 08:07:24;;;;;;;38.80;18.60;;;;;;;-0.57;89.68;101184.09;105426;1254;69072;-56
2023/03/03 08:09:58;;;;;;;33.00;17.00;;;;;;;-0.56;89.73;101177.27;105455;1254;74442;-56
2023/03/03 08:12:40;;;;;;;37.20;18.90;;;;;;;-0.55;89.50;101169.21;105498;1256;83132;-56
2023/03/03 08:15:19;;;;;;;37.30;18.90;;;;;;;-0.60;89.35;101165.00;105643;1254;73706;-56
2023/03/03 08:17:49;;;;;;;35.30;18.20;;;;;;;-0.64;88.97;101158.55;105480;1254;69173;-56
2023/03/03 08:20:48;;;;;;;35.10;18.40;;;;;;;-0.68;88.77;101162.95;105481;1256;69170;-55
2023/03/03 08:23:18;;;;;;;29.70;16.40;;;;;;;-0.75;88.60;101162.97;105591;1253;73914;-55
2023/03/03 08:25:48;;;;;;;35.50;16.90;;;;;;;-0.75;88.93;101166.73;105429;1254;83354;-56
2023/03/03 08:28:17;;;;;;;31.90;16.20;;;;;;;-0.66;89.36;101168.48;105434;1254;72460;-55
2023/03/03 08:30:46;;;;;;;38.40;18.10;;;;;;;-0.60;89.20;101168.77;105514;1253;69148;-56
2023/03/03 08:33:15;;;;;;;41.10;20.10;;;;;;;-0.61;89.09;101164.96;105520;1253;69194;-56
2023/03/03 08:35:44;;;;;;;37.10;18.40;;;;;;;-0.61;89.26;101168.92;105692;1256;74956;-56
2023/03/03 08:38:14;;;;;;;34.90;16.90;;;;;;;-0.55;89.41;101161.48;105509;1254;81473;-56
2023/03/03 08:40:43;;;;;;;29.00;15.60;;;;;;;-0.49;89.52;101166.09;105431;1254;73043;-56
2023/03/03 08:43:15;;;;;;;31.50;16.40;;;;;;;-0.43;89.54;101169.30;105510;1256;69202;-55
2023/03/03 08:45:45;;;;;;;34.50;16.40;;;;;;;-0.40;89.23;101177.77;105338;1256;157170;-55
2023/03/03 08:48:13;;;;;;;35.80;16.90;;;;;;;-0.33;89.56;101180.83;105610;1256;73387;-57
2023/03/03 08:50:42;;;;;;;33.00;17.70;;;;;;;-0.23;89.58;101186.33;105486;1253;82368;-56
2023/03/03 08:53:12;;;;;;;35.20;18.00;;;;;;;-0.21;89.38;101185.36;105503;1256;73160;-54
2023/03/03 08:55:41;;;;;;;32.90;16.50;;;;;;;-0.20;89.29;101188.28;105507;1253;69121;-56
2023/03/03 08:58:09;;;;;;;30.50;15.90;;;;;;;-0.14;89.41;101188.91;105525;1254;69185;-57
2023/03/03 09:00:37;;;;;;;32.80;17.50;;;;;;;-0.07;89.33;101184.75;105456;1256;73917;-57
2023/03/03 09:03:06;;;;;;;34.50;16.90;;;;;;;-0.11;88.91;101186.58;105436;1254;83419;-57
2023/03/03 09:05:36;;;;;;;31.10;16.10;;;;;;;-0.10;89.09;101188.83;105485;1254;73670;-55
2023/03/03 09:08:06;;;;;;;37.30;17.90;;;;;;;-0.06;89.34;101188.56;105476;1254;69486;-54
2023/03/03 09:10:35;;;;;;;35.60;17.70;;;;;;;-0.05;89.02;101187.38;105543;1253;68998;-57
2023/03/03 09:13:12;;;;;;;37.80;17.90;;;;;;;-0.07;88.93;101191.12;105725;1254;74861;-57
2023/03/03 09:15:40;;;;;;;36.90;17.60;;;;;;;-0.07;89.04;101192.49;105426;1254;83326;-56
2023/03/03 09:18:38;;;;;;;34.50;16.30;;;;;;;-0.01;89.30;101203.44;105689;1256;73697;-58
2023/03/03 09:21:22;;;;;;;31.30;15.60;;;;;;;0.08;89.13;101211.52;105426;1256;69611;-58
2023/03/03 09:23:56;;;;;;;30.70;15.40;;;;;;;0.13;88.88;101210.73;105459;1253;69056;-58
2023/03/03 09:26:51;;;;;;;33.50;16.30;;;;;;;0.17;88.83;101213.06;105506;1256;74174;-58
2023/03/03 09:29:28;;;;;;;31.40;15.10;;;;;;;0.23;88.73;101219.67;105602;1254;83633;-58
2023/03/03 09:31:59;;;;;;;34.30;17.00;;;;;;;0.22;88.76;101220.19;105469;1256;72380;-58
2023/03/03 09:34:41;;;;;;;35.80;17.80;;;;;;;0.25;89.00;101222.63;105533;1254;69165;-58
2023/03/03 09:37:22;;;;;;;63.90;26.30;;;;;;;0.25;88.97;101217.14;105518;1254;69185;-58
2023/03/03 09:39:56;;;;;;;30.30;15.00;;;;;;;0.22;88.71;101216.05;105576;1254;74795;-58
2023/03/03 09:42:37;;;;;;;35.30;17.60;;;;;;;0.20;88.56;101215.17;105488;1254;83335;-58
2023/03/03 09:45:16;;;;;;;34.90;18.30;;;;;;;0.18;88.41;101206.54;105476;1257;73971;-58
2023/03/03 09:47:57;;;;;;;33.40;16.50;;;;;;;0.18;88.20;101210.50;105532;1254;69174;-58
2023/03/03 09:50:40;;;;;;;30.90;15.20;;;;;;;0.11;88.10;101213.28;105421;1253;69132;-58
2023/03/03 09:53:27;;;;;;;23.90;13.10;;;;;;;0.09;88.16;101212.89;105445;1256;73544;-58
2023/03/03 09:56:18;;;;;;;25.20;13.30;;;;;;;0.11;88.48;101215.68;105455;1256;83322;-58
2023/03/03 09:58:57;;;;;;;31.00;15.80;;;;;;;0.16;88.51;101215.60;105464;1253;72791;-58
2023/03/03 10:01:39;;;;;;;30.70;14.80;;;;;;;0.15;88.26;101217.48;105487;1254;69167;-58
2023/03/03 10:04:23;;;;;;;35.20;17.70;;;;;;;0.14;88.54;101215.73;105472;1254;69536;-58
2023/03/03 10:07:17;;;;;;;24.30;12.90;;;;;;;0.20;88.54;101220.84;105700;1256;73997;-58
2023/03/03 10:10:02;;;;;;;25.40;13.10;;;;;;;0.21;88.52;101223.60;105232;1254;82411;-58
2023/03/03 10:12:38;;;;;;;27.80;14.10;;;;;;;0.23;88.50;101220.72;105432;1256;73889;-58
2023/03/03 10:15:41;;;;;;;29.50;14.20;;;;;;;0.27;88.52;101218.22;105482;1254;69113;-58
2023/03/03 10:18:29;;;;;;;26.80;13.20;;;;;;;0.32;88.40;101215.89;105450;1254;69151;-58
2023/03/03 10:21:21;;;;;;;28.50;13.70;;;;;;;0.35;88.22;101209.25;105766;1253;74294;-58
2023/03/03 10:23:55;;;;;;;30.30;14.30;;;;;;;0.31;87.93;101206.43;105489;1254;83381;-58
2023/03/03 10:26:33;;;;;;;26.70;13.50;;;;;;;0.26;87.80;101206.52;105455;1254;73778;-58
2023/03/03 10:29:33;;;;;;;22.50;12.20;;;;;;;0.28;87.96;101204.81;105664;1256;69177;-59
2023/03/03 10:32:26;;;;;;;21.40;11.80;;;;;;;0.31;87.56;101200.58;105458;1254;69055;-58
2023/03/03 10:35:23;;;;;;;22.00;12.00;;;;;;;0.37;87.97;101192.08;105513;1254;74832;-58
2023/03/03 10:38:06;;;;;;;22.00;12.00;;;;;;;0.52;88.33;101190.61;105475;1256;82968;-58
2023/03/03 10:40:49;;;;;;;21.40;11.90;;;;;;;0.64;88.29;101192.88;105501;1254;73370;-58
2023/03/03 10:43:29;;;;;;;22.30;11.60;;;;;;;0.67;87.75;101198.09;105664;1254;69289;-58
2023/03/03 10:46:21;;;;;;;24.70;12.20;;;;;;;0.63;87.51;101200.94;105494;1253;69188;-58
2023/03/03 10:49:12;;;;;;;27.70;14.10;;;;;;;0.62;87.57;101204.38;105472;1253;75030;-58
2023/03/03 10:52:10;;;;;;;31.50;15.10;;;;;;;0.56;87.50;101204.96;105500;1254;83342;-58
2023/03/03 10:55:03;;;;;;;32.20;13.60;;;;;;;0.54;87.78;101206.64;105438;1253;73849;-58
2023/03/03 10:57:51;;;;;;;29.30;14.00;;;;;;;0.61;87.80;101200.75;105453;1253;69180;-58
2023/03/03 11:00:25;;;;;;;28.90;13.60;;;;;;;0.59;87.31;101200.02;105517;1254;69064;-58
2023/03/03 11:03:10;;;;;;;33.60;13.90;;;;;;;0.54;87.35;101193.41;105534;1255;73929;-58
2023/03/03 11:05:41;;;;;;;29.90;14.10;;;;;;;0.58;87.81;101188.30;105460;1256;83439;-58
2023/03/03 11:08:18;;;;;;;30.10;13.90;;;;;;;0.67;87.91;101184.50;105677;1256;73436;-59
2023/03/03 11:11:11;;;;;;;29.30;13.30;;;;;;;0.72;88.00;101183.72;105414;1254;69314;-58
2023/03/03 11:13:58;;;;;;;30.70;14.10;;;;;;;0.79;88.16;101178.85;105461;1254;69081;-58
2023/03/03 11:16:36;;;;;;;43.90;18.10;;;;;;;0.85;88.01;101182.39;105420;1256;74099;-59
2023/03/03 11:19:23;;;;;;;48.40;21.20;;;;;;;0.87;87.67;101182.23;105483;1256;83304;-59
2023/03/03 11:22:07;;;;;;;35.00;15.10;;;;;;;0.89;87.94;101180.73;105434;1256;74063;-59
2023/03/03 11:25:07;;;;;;;31.70;15.10;;;;;;;0.97;87.84;101180.31;105476;1257;69112;-59
2023/03/03 11:27:35;;;;;;;34.60;16.90;;;;;;;1.01;87.69;101172.81;105280;1254;69643;-59
2023/03/03 11:30:25;;;;;;;33.10;16.80;;;;;;;0.98;87.54;101176.88;105470;1257;73975;-59
2023/03/03 11:33:04;;;;;;;35.20;15.80;;;;;;;0.96;87.70;101175.66;105494;1254;82604;-59